<?xml version="1.0" encoding="UTF-8"?>
<gpx version="1.1" creator="https://www.www-youtrack-es.amenigma.com" xsi:schemaLocation="http://www.topografix.com/GPX/1/1 http://www.topografix.com/GPX/1/1/gpx.xsd http://www.garmin.com/xmlschemas/GpxExtensions/v3 http://www.garmin.com/xmlschemas/GpxExtensionsv3.xsd http://www.garmin.com/xmlschemas/TrackPointExtension/v1 http://www.garmin.com/xmlschemas/TrackPointExtensionv1.xsd" xmlns:gpxtpx="http://www.garmin.com/xmlschemas/TrackPointExtension/v1" xmlns:gpxx="http://www.garmin.com/xmlschemas/GpxExtensions/v3" xmlns:xsi="http://www.w3.org/2001/XMLSchema-instance">
  <metadata>
    <link href="https://www.www-youtrack-es.amenigma.com">
      <text>YouTrack.es</text>
    </link>
    <time>2026-08-31T02:49:23Z</time>
  </metadata>
  <trk>
    <src>https://www.www-youtrack-es.amenigma.com</src>
    <link href="https://www.www-youtrack-es.amenigma.com/ruta/18720-chinchilla-de-monte-aragon">
      <text>YouTrack.es</text>
    </link>
    <trkseg>
      <trkpt lat="38.923028" lon="-1.701676">
        <ele>905.833</ele>
        <time>2021-01-10T16:14:54Z</time>
      </trkpt>
      <trkpt lat="38.922986" lon="-1.702630">
        <ele>906.023</ele>
        <time>2021-01-10T16:16:03Z</time>
      </trkpt>
      <trkpt lat="38.922271" lon="-1.704327">
        <ele>911.115</ele>
        <time>2021-01-10T16:18:47Z</time>
      </trkpt>
      <trkpt lat="38.922012" lon="-1.707079">
        <ele>916.308</ele>
        <time>2021-01-10T16:22:16Z</time>
      </trkpt>
      <trkpt lat="38.922100" lon="-1.707564">
        <ele>915.629</ele>
        <time>2021-01-10T16:22:56Z</time>
      </trkpt>
      <trkpt lat="38.921380" lon="-1.708328">
        <ele>918.966</ele>
        <time>2021-01-10T16:25:39Z</time>
      </trkpt>
      <trkpt lat="38.921288" lon="-1.709185">
        <ele>916.760</ele>
        <time>2021-01-10T16:26:59Z</time>
      </trkpt>
      <trkpt lat="38.921636" lon="-1.709958">
        <ele>908.838</ele>
        <time>2021-01-10T16:28:04Z</time>
      </trkpt>
      <trkpt lat="38.922806" lon="-1.710872">
        <ele>910.082</ele>
        <time>2021-01-10T16:31:10Z</time>
      </trkpt>
      <trkpt lat="38.922424" lon="-1.711922">
        <ele>910.769</ele>
        <time>2021-01-10T16:33:01Z</time>
      </trkpt>
      <trkpt lat="38.923334" lon="-1.712056">
        <ele>918.065</ele>
        <time>2021-01-10T16:34:48Z</time>
      </trkpt>
      <trkpt lat="38.923836" lon="-1.711831">
        <ele>924.426</ele>
        <time>2021-01-10T16:36:01Z</time>
      </trkpt>
      <trkpt lat="38.923950" lon="-1.712052">
        <ele>926.252</ele>
        <time>2021-01-10T16:36:40Z</time>
      </trkpt>
      <trkpt lat="38.923869" lon="-1.712663">
        <ele>933.153</ele>
        <time>2021-01-10T16:38:06Z</time>
      </trkpt>
      <trkpt lat="38.923089" lon="-1.713249">
        <ele>934.908</ele>
        <time>2021-01-10T16:41:36Z</time>
      </trkpt>
      <trkpt lat="38.922176" lon="-1.713401">
        <ele>938.608</ele>
        <time>2021-01-10T16:43:12Z</time>
      </trkpt>
      <trkpt lat="38.921716" lon="-1.713884">
        <ele>939.431</ele>
        <time>2021-01-10T16:44:06Z</time>
      </trkpt>
      <trkpt lat="38.921295" lon="-1.714060">
        <ele>940.758</ele>
        <time>2021-01-10T16:44:40Z</time>
      </trkpt>
      <trkpt lat="38.920944" lon="-1.714648">
        <ele>942.182</ele>
        <time>2021-01-10T16:45:54Z</time>
      </trkpt>
      <trkpt lat="38.920368" lon="-1.715178">
        <ele>940.990</ele>
        <time>2021-01-10T16:48:57Z</time>
      </trkpt>
      <trkpt lat="38.920558" lon="-1.715587">
        <ele>946.794</ele>
        <time>2021-01-10T16:49:38Z</time>
      </trkpt>
      <trkpt lat="38.920533" lon="-1.715903">
        <ele>947.431</ele>
        <time>2021-01-10T16:50:01Z</time>
      </trkpt>
      <trkpt lat="38.920768" lon="-1.715113">
        <ele>954.387</ele>
        <time>2021-01-10T16:51:32Z</time>
      </trkpt>
      <trkpt lat="38.921097" lon="-1.715026">
        <ele>956.528</ele>
        <time>2021-01-10T16:51:49Z</time>
      </trkpt>
      <trkpt lat="38.921255" lon="-1.715172">
        <ele>957.876</ele>
        <time>2021-01-10T16:52:04Z</time>
      </trkpt>
      <trkpt lat="38.921701" lon="-1.715149">
        <ele>957.990</ele>
        <time>2021-01-10T16:53:19Z</time>
      </trkpt>
      <trkpt lat="38.921697" lon="-1.715642">
        <ele>955.419</ele>
        <time>2021-01-10T16:56:05Z</time>
      </trkpt>
      <trkpt lat="38.922006" lon="-1.715127">
        <ele>958.208</ele>
        <time>2021-01-10T16:59:44Z</time>
      </trkpt>
      <trkpt lat="38.922912" lon="-1.714917">
        <ele>957.583</ele>
        <time>2021-01-10T17:01:02Z</time>
      </trkpt>
      <trkpt lat="38.923765" lon="-1.714475">
        <ele>953.210</ele>
        <time>2021-01-10T17:03:37Z</time>
      </trkpt>
      <trkpt lat="38.924037" lon="-1.714705">
        <ele>945.994</ele>
        <time>2021-01-10T17:03:59Z</time>
      </trkpt>
      <trkpt lat="38.923853" lon="-1.715051">
        <ele>934.972</ele>
        <time>2021-01-10T17:05:45Z</time>
      </trkpt>
      <trkpt lat="38.924036" lon="-1.715541">
        <ele>917.476</ele>
        <time>2021-01-10T17:08:24Z</time>
      </trkpt>
      <trkpt lat="38.924230" lon="-1.715727">
        <ele>911.873</ele>
        <time>2021-01-10T17:08:44Z</time>
      </trkpt>
      <trkpt lat="38.924451" lon="-1.715632">
        <ele>911.639</ele>
        <time>2021-01-10T17:09:17Z</time>
      </trkpt>
      <trkpt lat="38.924771" lon="-1.715716">
        <ele>903.450</ele>
        <time>2021-01-10T17:10:04Z</time>
      </trkpt>
      <trkpt lat="38.925211" lon="-1.715459">
        <ele>902.843</ele>
        <time>2021-01-10T17:11:11Z</time>
      </trkpt>
      <trkpt lat="38.925976" lon="-1.713549">
        <ele>901.264</ele>
        <time>2021-01-10T17:13:54Z</time>
      </trkpt>
      <trkpt lat="38.926489" lon="-1.713538">
        <ele>904.010</ele>
        <time>2021-01-10T17:15:13Z</time>
      </trkpt>
      <trkpt lat="38.926771" lon="-1.713273">
        <ele>905.408</ele>
        <time>2021-01-10T17:15:39Z</time>
      </trkpt>
      <trkpt lat="38.927116" lon="-1.713233">
        <ele>908.780</ele>
        <time>2021-01-10T17:16:09Z</time>
      </trkpt>
      <trkpt lat="38.927898" lon="-1.713448">
        <ele>914.497</ele>
        <time>2021-01-10T17:18:01Z</time>
      </trkpt>
      <trkpt lat="38.928398" lon="-1.713850">
        <ele>918.721</ele>
        <time>2021-01-10T17:18:36Z</time>
      </trkpt>
      <trkpt lat="38.928615" lon="-1.714345">
        <ele>919.959</ele>
        <time>2021-01-10T17:19:56Z</time>
      </trkpt>
      <trkpt lat="38.929297" lon="-1.714772">
        <ele>921.173</ele>
        <time>2021-01-10T17:20:53Z</time>
      </trkpt>
      <trkpt lat="38.929532" lon="-1.715905">
        <ele>918.160</ele>
        <time>2021-01-10T17:25:15Z</time>
      </trkpt>
      <trkpt lat="38.930077" lon="-1.715930">
        <ele>905.856</ele>
        <time>2021-01-10T17:27:58Z</time>
      </trkpt>
      <trkpt lat="38.930530" lon="-1.716392">
        <ele>888.417</ele>
        <time>2021-01-10T17:29:37Z</time>
      </trkpt>
      <trkpt lat="38.931494" lon="-1.714912">
        <ele>892.086</ele>
        <time>2021-01-10T17:33:06Z</time>
      </trkpt>
      <trkpt lat="38.931837" lon="-1.715160">
        <ele>893.060</ele>
        <time>2021-01-10T17:33:46Z</time>
      </trkpt>
      <trkpt lat="38.932477" lon="-1.715250">
        <ele>887.826</ele>
        <time>2021-01-10T17:34:44Z</time>
      </trkpt>
      <trkpt lat="38.933108" lon="-1.714887">
        <ele>888.908</ele>
        <time>2021-01-10T17:35:43Z</time>
      </trkpt>
      <trkpt lat="38.933288" lon="-1.714606">
        <ele>884.714</ele>
        <time>2021-01-10T17:36:07Z</time>
      </trkpt>
      <trkpt lat="38.933220" lon="-1.714226">
        <ele>885.621</ele>
        <time>2021-01-10T17:36:36Z</time>
      </trkpt>
      <trkpt lat="38.933429" lon="-1.713648">
        <ele>888.285</ele>
        <time>2021-01-10T17:37:13Z</time>
      </trkpt>
      <trkpt lat="38.933620" lon="-1.710789">
        <ele>881.153</ele>
        <time>2021-01-10T17:40:30Z</time>
      </trkpt>
      <trkpt lat="38.933193" lon="-1.709995">
        <ele>887.321</ele>
        <time>2021-01-10T17:41:25Z</time>
      </trkpt>
      <trkpt lat="38.932668" lon="-1.709802">
        <ele>890.426</ele>
        <time>2021-01-10T17:42:10Z</time>
      </trkpt>
      <trkpt lat="38.932130" lon="-1.709835">
        <ele>894.636</ele>
        <time>2021-01-10T17:42:51Z</time>
      </trkpt>
      <trkpt lat="38.931651" lon="-1.710199">
        <ele>893.789</ele>
        <time>2021-01-10T17:43:34Z</time>
      </trkpt>
      <trkpt lat="38.931344" lon="-1.710849">
        <ele>895.226</ele>
        <time>2021-01-10T17:44:21Z</time>
      </trkpt>
      <trkpt lat="38.931070" lon="-1.710780">
        <ele>893.647</ele>
        <time>2021-01-10T17:44:46Z</time>
      </trkpt>
      <trkpt lat="38.930819" lon="-1.710485">
        <ele>897.911</ele>
        <time>2021-01-10T17:45:10Z</time>
      </trkpt>
      <trkpt lat="38.930336" lon="-1.710449">
        <ele>897.108</ele>
        <time>2021-01-10T17:45:49Z</time>
      </trkpt>
      <trkpt lat="38.929504" lon="-1.711114">
        <ele>902.178</ele>
        <time>2021-01-10T17:47:15Z</time>
      </trkpt>
      <trkpt lat="38.928644" lon="-1.711405">
        <ele>902.185</ele>
        <time>2021-01-10T17:48:31Z</time>
      </trkpt>
      <trkpt lat="38.927979" lon="-1.711362">
        <ele>902.199</ele>
        <time>2021-01-10T17:49:19Z</time>
      </trkpt>
      <trkpt lat="38.926841" lon="-1.712083">
        <ele>906.057</ele>
        <time>2021-01-10T17:51:02Z</time>
      </trkpt>
      <trkpt lat="38.926317" lon="-1.712175">
        <ele>914.615</ele>
        <time>2021-01-10T17:52:07Z</time>
      </trkpt>
      <trkpt lat="38.925688" lon="-1.710817">
        <ele>910.390</ele>
        <time>2021-01-10T17:53:44Z</time>
      </trkpt>
      <trkpt lat="38.926159" lon="-1.710141">
        <ele>910.910</ele>
        <time>2021-01-10T17:54:38Z</time>
      </trkpt>
      <trkpt lat="38.926095" lon="-1.709772">
        <ele>910.963</ele>
        <time>2021-01-10T17:54:59Z</time>
      </trkpt>
      <trkpt lat="38.925375" lon="-1.709661">
        <ele>912.545</ele>
        <time>2021-01-10T17:55:59Z</time>
      </trkpt>
      <trkpt lat="38.925303" lon="-1.708867">
        <ele>921.147</ele>
        <time>2021-01-10T17:56:54Z</time>
      </trkpt>
      <trkpt lat="38.924972" lon="-1.708392">
        <ele>926.511</ele>
        <time>2021-01-10T17:57:36Z</time>
      </trkpt>
      <trkpt lat="38.924498" lon="-1.708207">
        <ele>932.008</ele>
        <time>2021-01-10T17:58:18Z</time>
      </trkpt>
      <trkpt lat="38.923517" lon="-1.708248">
        <ele>934.930</ele>
        <time>2021-01-10T17:59:36Z</time>
      </trkpt>
      <trkpt lat="38.923116" lon="-1.708002">
        <ele>934.057</ele>
        <time>2021-01-10T18:00:11Z</time>
      </trkpt>
      <trkpt lat="38.922635" lon="-1.706750">
        <ele>923.881</ele>
        <time>2021-01-10T18:01:38Z</time>
      </trkpt>
      <trkpt lat="38.922299" lon="-1.706578">
        <ele>925.469</ele>
        <time>2021-01-10T18:02:07Z</time>
      </trkpt>
      <trkpt lat="38.922413" lon="-1.705605">
        <ele>922.257</ele>
        <time>2021-01-10T18:03:18Z</time>
      </trkpt>
      <trkpt lat="38.923029" lon="-1.704451">
        <ele>921.942</ele>
        <time>2021-01-10T18:04:39Z</time>
      </trkpt>
      <trkpt lat="38.923260" lon="-1.703549">
        <ele>917.092</ele>
        <time>2021-01-10T18:05:34Z</time>
      </trkpt>
      <trkpt lat="38.923874" lon="-1.702529">
        <ele>914.265</ele>
        <time>2021-01-10T18:06:53Z</time>
      </trkpt>
      <trkpt lat="38.923868" lon="-1.702256">
        <ele>914.452</ele>
        <time>2021-01-10T18:07:08Z</time>
      </trkpt>
      <trkpt lat="38.923136" lon="-1.701166">
        <ele>910.453</ele>
        <time>2021-01-10T18:08:41Z</time>
      </trkpt>
      <trkpt lat="38.922885" lon="-1.700348">
        <ele>909.708</ele>
        <time>2021-01-10T18:09:34Z</time>
      </trkpt>
      <trkpt lat="38.922956" lon="-1.699254">
        <ele>907.108</ele>
        <time>2021-01-10T18:12:34Z</time>
      </trkpt>
    </trkseg>
  </trk>
</gpx>
